Flight Track Log - Related Links

Times and Time Zones

All times are in EDT time to prevent confusion due to time zone crossing. See the FLG4222 flight status page for this flight to view local times or setup timezone preferences in your user account.

Time Position Orientation Groundspeed Altitude Reporting Facility
EDT Latitude Longitude Course Direction KTS MPH feet Rate Location/Type
Thu 11:47:18 AM 42.1483 -76.0797 293° West 189 217 7,200  Level New York Center
Thu 11:48:20 AM 42.1775 -76.1717 293° West 214 246 9,700 1,458 Climbing New York Center
Thu 11:50:52 AM 42.2647 -76.4436 294° West 343 395 12,400 1,037 Climbing Cleveland Center
Thu 11:51:54 AM 42.3069 -76.5731 294° West 369 425 13,400 1,016 Climbing Cleveland Center
Thu 11:52:56 AM 42.3569 -76.7342 293° West 384 442 14,500 1,065 Climbing Cleveland Center
Thu 11:53:58 AM 42.3994 -76.8694 293° West 390 449 15,600 1,097 Climbing Cleveland Center
Thu 11:56:02 AM 42.4822 -77.1417 294° West 392 451 17,900 1,097 Climbing Cleveland Center
Thu 11:57:04 AM 42.5236 -77.2769 293° West 391 450 19,000 1,016 Climbing Cleveland Center
Thu 11:58:06 AM 42.5653 -77.4119 293° West 389 448 20,000 1,171 Climbing Cleveland Center
Thu 11:59:07 AM 42.6142 -77.5736 292° West 389 448 21,400 1,366 Climbing Cleveland Center
Thu 12:00:09 PM 42.6508 -77.6939 293° West 387 445 22,800 1,452 Climbing Cleveland Center
Thu 12:01:11 PM 42.6681 -77.8211 280° West 353 406 24,400 1,597 Climbing Cleveland Center
Thu 12:02:13 PM 42.6719 -77.9708 272° West 335 386 26,100 1,129 Climbing Cleveland Center
Thu 12:04:17 PM 42.6783 -78.2197 272° West 331 381 27,900 460 Climbing Cleveland Center
Thu 12:06:21 PM 42.6831 -78.4883 271° West 366 421 28,000 65 Climbing Cleveland Center
Thu 12:07:23 PM 42.6867 -78.6308 272° West 376 433 28,100  Climbing Cleveland Center
Thu 12:08:26 PM 42.6908 -78.8089 272° West 393 452 28,000 -48 Descending Cleveland Center
Thu 12:09:28 PM 42.6919 -78.9592 271° West 396 456 28,000  Level Cleveland Center
Thu 12:10:30 PM 42.6947 -79.1114 271° West 401 461 28,000  Level Cleveland Center
Thu 12:11:32 PM 42.6975 -79.2644 271° West 404 465 28,000  Level Cleveland Center
Thu 12:12:34 PM 42.6997 -79.4178 271° West 406 467 28,000  Level Cleveland Center
Thu 12:13:36 PM 42.7017 -79.6050 271° West 412 474 28,000  Level Cleveland Center
Thu 12:14:38 PM 42.7025 -79.7575 270° West 409 471 28,000  Level Cleveland Center
Thu 12:15:40 PM 42.7039 -79.9119 271° West 409 471 28,000  Level Cleveland Center
Thu 12:16:42 PM 42.7031 -80.0658 270° West 407 468 28,000 -174 Level Cleveland Center
Thu 12:20:51 PM 42.7072 -80.7086 261° West 406 467 27,100 -367 Descending Cleveland Center
Thu 12:21:53 PM 42.7061 -80.8678 270° West 418 481 26,100 -968 Descending Cleveland Center
Thu 12:22:55 PM 42.6914 -81.0164 262° West 401 461 25,100 -968 Descending Cleveland Center
Thu 12:23:57 PM 42.6753 -81.1603 261° West 391 450 24,100 -968 Descending Cleveland Center
Thu 12:24:59 PM 42.6592 -81.3042 261° West 385 443 23,100 -968 Descending Cleveland Center
Thu 12:25:00 PM 42.6691 -81.1459 262° West  Level FlightAware Approximate
Thu 12:26:00 PM 42.6547 -81.2749 261° West  Level FlightAware Approximate
Thu 12:26:01 PM 42.6419 -81.4478 261° West 384 442 22,100  Level Cleveland Center
Thu 12:27:03 PM 42.6217 -81.6175 261° West 384 442 20,900 -1,056 Descending Cleveland Center
Thu 12:28:06 PM 42.6044 -81.7644 261° West 387 445 19,900 -1,235 Descending Cleveland Center
Thu 12:32:14 PM 42.5383 -82.3108 242° Southwest 349 402 14,500 -1,350 Descending Cleveland Center
Thu 12:33:17 PM 42.5211 -82.4411 260° West 349 402 12,900 -1,680 Descending Cleveland Center
Thu 12:33:29 PM 42.5136 -82.4936 259° West 351 404 12,400 -885 Descending Cleveland Center
Thu 12:34:18 PM 42.4911 -82.5939 253° West 353 406 12,000 -387 Descending Cleveland Center
Thu 12:34:31 PM 42.4819 -82.6167 241° Southwest 347 399 12,000  Level Cleveland Center
Thu 12:35:20 PM 42.4492 -82.7108 245° Southwest 345 397 12,000  Level Cleveland Center
Thu 12:35:32 PM 42.4419 -82.7358 249° West 346 398 12,000  Level Cleveland Center
Thu 12:36:22 PM 42.4078 -82.8278 243° Southwest 346 398 12,000  Level Cleveland Center
Thu 12:37:00 PM 42.3828 -82.8679 242° Southwest  Level FlightAware Approximate
Thu 12:37:24 PM 42.3733 -82.9231 244° Southwest 280 322 12,000  Level Cleveland Center
Thu 12:38:35 PM 42.3369 -83.0269 245° Southwest 242 278 12,000  Level Cleveland Center
Thu 12:39:29 PM 42.3150 -83.0864 243° Southwest 244 281 12,000 -630 Level Cleveland Center
Thu 12:42:33 PM 42.1553 -83.2669 236° Southwest 236 272 9,500 -1,004 Descending Cleveland Center
Thu 12:43:34 PM 42.0911 -83.3086 206° Southwest 232 267 7,900 -1,220 Descending Cleveland Center
Thu 12:44:36 PM 42.0317 -83.3453 205° Southwest 234 269 7,000 -880 Descending Cleveland Center
Thu 12:46:38 PM 41.9128 -83.4186 205° Southwest 231 266 5,200 -984 Descending Cleveland Center
Thu 12:47:39 PM 41.8589 -83.4642 212° Southwest 225 259 4,000 -600 Descending Cleveland Center
Thu 12:48:00 PM 42.2000 -83.3500 236° Southwest  Level FlightAware Approximate
Thu 12:48:48 PM 41.8969 -83.5217 312° West 209 241 3,900  Level Cleveland Center
Thu 12:49:36 PM 41.9361 -83.5228 359° North 177 204 3,200 -774 Descending Cleveland Center
Thu 12:49:50 PM 41.9425 -83.5214 North 177 204 3,100 -98 Descending Cleveland Center
Thu 12:51:38 PM 42.0278 -83.4769 21° North 178 205 3,000 -48 Descending Cleveland Center
Thu 12:51:54 PM 42.0319 -83.4717 43° Northeast 179 206 3,000  Level Cleveland Center
Thu 12:52:39 PM 42.0700 -83.4436 29° Northeast 170 196 3,000 -226 Level Cleveland Center
Thu 12:53:40 PM 42.1122 -83.4131 28° Northeast 175 201 2,600 -532 Descending Cleveland Center
Thu 12:53:58 PM 42.1231 -83.4044 31° Northeast 174 200 2,300 -885 Descending Cleveland Center
Thu 12:54:41 PM 42.1503 -83.3844 29° Northeast 128 147 1,700 -774 Descending Cleveland Center
Thu 12:55:00 PM 42.1592 -83.3783 27° Northeast 159 183 1,500 -689 Descending Cleveland Center
Thu 12:55:42 PM 42.1836 -83.3611 28° Northeast 133 153 1,000 -677 Descending Cleveland Center
Thu 12:56:02 PM 42.1908 -83.3558 28° Northeast 140 161 800 -600 Descending Cleveland Center

Login

Don't have an account? Register now (free) for customized features, flight alerts, and more!